createdAt,value
2023-02-16T00:01:43.851Z,-4.74
2023-02-16T00:04:22.417Z,-4.79
2023-02-16T00:06:50.374Z,-4.87
2023-02-16T00:09:17.978Z,-4.87
2023-02-16T00:12:05.981Z,-4.90
2023-02-16T00:14:35.394Z,-4.89
2023-02-16T00:17:02.562Z,-4.96
2023-02-16T00:19:34.334Z,-5.03
2023-02-16T00:22:01.104Z,-4.92
2023-02-16T00:24:30.196Z,-5.04
2023-02-16T00:26:58.411Z,-5.10
2023-02-16T00:29:30.879Z,-5.06
2023-02-16T00:31:59.552Z,-5.07
2023-02-16T00:34:29.786Z,-5.07
2023-02-16T00:36:57.959Z,-5.09
2023-02-16T00:39:25.687Z,-5.07
2023-02-16T00:41:58.705Z,-5.04
2023-02-16T00:44:35.039Z,-4.97
2023-02-16T00:47:06.518Z,-4.90
2023-02-16T00:49:33.332Z,-4.87
2023-02-16T00:52:00.126Z,-4.86
2023-02-16T00:54:26.860Z,-4.94
2023-02-16T00:56:53.543Z,-4.95
2023-02-16T00:59:23.103Z,-4.89
2023-02-16T01:01:50.481Z,-5.01
2023-02-16T01:04:21.118Z,-5.00
2023-02-16T01:07:06.534Z,-5.03
2023-02-16T01:09:51.743Z,-5.04
2023-02-16T01:12:21.199Z,-5.12
2023-02-16T01:14:52.324Z,-5.09
2023-02-16T01:17:19.442Z,-5.10
2023-02-16T01:19:46.256Z,-5.08
2023-02-16T01:22:13.488Z,-5.06
2023-02-16T01:24:40.237Z,-5.06
2023-02-16T01:27:11.201Z,-5.08
2023-02-16T01:29:38.203Z,-5.10
2023-02-16T01:32:05.063Z,-5.12
2023-02-16T01:34:31.897Z,-5.13
2023-02-16T01:36:58.686Z,-5.12
2023-02-16T01:39:25.438Z,-5.11
2023-02-16T01:42:07.560Z,-5.16
2023-02-16T01:44:46.557Z,-5.12
2023-02-16T01:47:27.107Z,-5.10
2023-02-16T01:49:53.864Z,-5.11
2023-02-16T01:52:37.897Z,-5.11
2023-02-16T01:55:35.184Z,-5.13
2023-02-16T01:58:08.516Z,-5.18
2023-02-16T02:00:54.733Z,-5.18
2023-02-16T02:03:54.133Z,-5.20
2023-02-16T02:06:41.142Z,-5.23
2023-02-16T02:09:51.821Z,-5.20
2023-02-16T02:12:34.857Z,-5.13
2023-02-16T02:15:01.645Z,-5.18
2023-02-16T02:17:31.568Z,-5.13
2023-02-16T02:20:08.243Z,-5.08
2023-02-16T02:23:30.511Z,-5.08
2023-02-16T02:26:35.014Z,-5.06
2023-02-16T02:29:23.467Z,-5.05
2023-02-16T02:31:56.160Z,-5.15
2023-02-16T02:34:59.657Z,-5.08
2023-02-16T02:37:32.007Z,-5.11
2023-02-16T02:40:21.680Z,-5.13
2023-02-16T02:43:09.571Z,-5.08
2023-02-16T02:45:45.659Z,-5.11
2023-02-16T02:48:12.421Z,-5.16
2023-02-16T02:51:07.497Z,-5.12
2023-02-16T02:53:37.946Z,-5.19
2023-02-16T02:56:25.975Z,-5.18
2023-02-16T02:59:17.008Z,-5.25
2023-02-16T03:01:50.051Z,-5.27
2023-02-16T03:04:20.791Z,-5.33
2023-02-16T03:06:51.108Z,-5.38
2023-02-16T03:09:19.080Z,-5.43
2023-02-16T03:12:07.203Z,-5.42
2023-02-16T03:14:45.044Z,-5.47
2023-02-16T03:17:34.198Z,-5.48
2023-02-16T03:20:23.541Z,-5.51
2023-02-16T03:23:09.812Z,-5.50
2023-02-16T03:25:57.624Z,-5.50
2023-02-16T03:28:46.397Z,-5.49
2023-02-16T03:31:20.129Z,-5.46
2023-02-16T03:33:54.563Z,-5.44
2023-02-16T03:36:27.876Z,-5.38
2023-02-16T03:38:56.538Z,-5.43
2023-02-16T03:41:25.035Z,-5.44
2023-02-16T03:43:52.077Z,-5.47
2023-02-16T03:46:19.074Z,-5.49
2023-02-16T03:48:45.833Z,-5.47
2023-02-16T03:51:12.673Z,-5.48
2023-02-16T03:53:39.446Z,-5.51
2023-02-16T03:56:06.428Z,-5.50
2023-02-16T03:58:33.553Z,-5.47
2023-02-16T04:01:00.290Z,-5.43
2023-02-16T04:03:27.367Z,-5.41
2023-02-16T04:05:54.254Z,-5.44
2023-02-16T04:08:20.981Z,-5.42
2023-02-16T04:10:47.798Z,-5.43
2023-02-16T04:13:14.738Z,-5.41
2023-02-16T04:15:41.703Z,-5.38
2023-02-16T04:18:08.563Z,-5.30
2023-02-16T04:20:35.933Z,-5.33
2023-02-16T04:23:03.175Z,-5.29
2023-02-16T04:25:30.173Z,-5.26
2023-02-16T04:27:58.791Z,-5.26
2023-02-16T04:30:31.066Z,-5.25
2023-02-16T04:32:59.363Z,-5.23
2023-02-16T04:35:26.311Z,-5.15
2023-02-16T04:37:53.067Z,-5.14
2023-02-16T04:40:19.977Z,-5.20
2023-02-16T04:42:46.890Z,-5.28
2023-02-16T04:45:14.394Z,-5.31
2023-02-16T04:47:41.460Z,-5.33
2023-02-16T04:50:08.687Z,-5.37
2023-02-16T04:52:36.864Z,-5.42
2023-02-16T04:55:05.721Z,-5.38
2023-02-16T04:57:32.709Z,-5.46
2023-02-16T04:59:59.456Z,-5.45
2023-02-16T05:02:26.385Z,-5.42
2023-02-16T05:04:53.207Z,-5.38
2023-02-16T05:07:19.986Z,-5.40
2023-02-16T05:09:46.745Z,-5.42
2023-02-16T05:12:31.968Z,-5.38
2023-02-16T05:14:58.712Z,-5.34
2023-02-16T05:17:26.728Z,-5.30
2023-02-16T05:19:56.464Z,-5.29
2023-02-16T05:22:24.175Z,-5.27
2023-02-16T05:24:51.525Z,-5.20
2023-02-16T05:27:21.559Z,-5.12
2023-02-16T05:29:48.618Z,-5.15
2023-02-16T05:32:15.627Z,-5.16
2023-02-16T05:34:44.460Z,-5.19
2023-02-16T05:37:12.236Z,-5.22
2023-02-16T05:39:39.118Z,-5.27
2023-02-16T05:42:05.829Z,-5.29
2023-02-16T05:44:32.668Z,-5.38
2023-02-16T05:46:59.401Z,-5.36
2023-02-16T05:49:26.285Z,-5.35
2023-02-16T05:51:53.163Z,-5.36
2023-02-16T05:54:20.100Z,-5.34
2023-02-16T05:56:52.962Z,-5.26
2023-02-16T05:59:20.149Z,-5.24
2023-02-16T06:01:50.974Z,-5.26
2023-02-16T06:04:18.977Z,-5.27
2023-02-16T06:06:45.925Z,-5.28
2023-02-16T06:09:12.760Z,-5.25
2023-02-16T06:11:40.138Z,-5.24
2023-02-16T06:14:13.736Z,-5.19
2023-02-16T06:16:42.888Z,-5.15
2023-02-16T06:19:10.536Z,-5.09
2023-02-16T06:21:38.557Z,-5.06
2023-02-16T06:24:07.024Z,-5.06
2023-02-16T06:26:33.955Z,-5.03
2023-02-16T06:29:08.119Z,-4.97
2023-02-16T06:31:36.632Z,-4.91
2023-02-16T06:34:04.880Z,-4.84
2023-02-16T06:36:31.977Z,-4.84
2023-02-16T06:38:58.757Z,-4.87
2023-02-16T06:41:31.824Z,-4.93
2023-02-16T06:44:07.057Z,-4.92
2023-02-16T06:46:33.930Z,-4.96
2023-02-16T06:49:01.401Z,-4.90
2023-02-16T06:51:28.431Z,-4.85
2023-02-16T06:53:55.416Z,-4.82
2023-02-16T06:56:22.973Z,-4.78
2023-02-16T06:58:49.986Z,-4.72
2023-02-16T07:01:23.059Z,-4.64
2023-02-16T07:03:51.806Z,-4.55
2023-02-16T07:06:19.438Z,-4.56
2023-02-16T07:08:46.517Z,-4.56
2023-02-16T07:11:13.879Z,-4.56
2023-02-16T07:13:40.696Z,-4.47
2023-02-16T07:16:08.063Z,-4.42
2023-02-16T07:18:35.004Z,-4.34
2023-02-16T07:21:02.762Z,-4.30
2023-02-16T07:23:29.816Z,-4.45
2023-02-16T07:25:56.543Z,-4.50
2023-02-16T07:28:23.561Z,-4.43
2023-02-16T07:30:51.178Z,-4.37
2023-02-16T07:33:18.809Z,-4.21
2023-02-16T07:35:45.682Z,-4.12
2023-02-16T07:38:13.041Z,-4.12
2023-02-16T07:40:40.098Z,-4.30
2023-02-16T07:43:07.877Z,-4.43
2023-02-16T07:45:35.156Z,-4.53
2023-02-16T07:48:02.985Z,-4.59
2023-02-16T07:50:30.257Z,-4.52
2023-02-16T07:52:57.257Z,-4.42
2023-02-16T07:55:24.314Z,-4.31
2023-02-16T07:57:55.398Z,-4.26
2023-02-16T08:00:22.466Z,-4.20
2023-02-16T08:02:49.828Z,-4.20
2023-02-16T08:05:16.987Z,-4.19
2023-02-16T08:07:47.880Z,-4.19
2023-02-16T08:10:15.721Z,-4.18
2023-02-16T08:12:43.148Z,-4.15
2023-02-16T08:15:11.031Z,-4.12
2023-02-16T08:17:37.996Z,-4.08
2023-02-16T08:20:07.734Z,-4.00
2023-02-16T08:22:35.224Z,-3.89
2023-02-16T08:25:02.251Z,-3.75
2023-02-16T08:27:30.770Z,-3.62
2023-02-16T08:29:57.734Z,-3.58
2023-02-16T08:32:24.713Z,-3.60
2023-02-16T08:34:52.281Z,-3.58
2023-02-16T08:37:22.604Z,-3.46
2023-02-16T08:39:49.568Z,-3.46
2023-02-16T08:42:17.448Z,-3.46
2023-02-16T08:44:44.753Z,-3.39
2023-02-16T08:47:21.113Z,-3.32
2023-02-16T08:49:47.949Z,-3.31
2023-02-16T08:52:14.898Z,-3.26
2023-02-16T08:54:42.127Z,-3.20
2023-02-16T08:57:11.926Z,-3.16
2023-02-16T08:59:39.004Z,-3.13
2023-02-16T09:02:06.059Z,-3.06
2023-02-16T09:04:33.561Z,-3.01
2023-02-16T09:07:22.383Z,-2.94
2023-02-16T09:09:53.004Z,-2.94
2023-02-16T09:12:19.855Z,-2.95
2023-02-16T09:14:46.902Z,-2.97
2023-02-16T09:17:14.456Z,-3.07
2023-02-16T09:19:43.552Z,-3.16
2023-02-16T09:22:10.706Z,-3.15
2023-02-16T09:24:37.763Z,-3.05
2023-02-16T09:27:04.665Z,-2.97
2023-02-16T09:29:31.479Z,-2.85
2023-02-16T09:31:58.767Z,-2.73
2023-02-16T09:34:27.877Z,-2.65
2023-02-16T09:36:54.799Z,-2.63
2023-02-16T09:39:21.641Z,-2.65
2023-02-16T09:41:54.053Z,-2.60
2023-02-16T09:44:33.628Z,-2.53
2023-02-16T09:47:06.772Z,-2.69
2023-02-16T09:49:41.310Z,-2.77
2023-02-16T09:52:08.058Z,-2.94
2023-02-16T09:54:43.891Z,-2.93
2023-02-16T09:57:16.465Z,-2.97
2023-02-16T09:59:43.280Z,-3.22
2023-02-16T10:02:51.959Z,-3.19
2023-02-16T10:05:35.115Z,-3.43
2023-02-16T10:08:14.468Z,-3.55
2023-02-16T10:10:49.151Z,-3.71
2023-02-16T10:13:19.316Z,-3.68
2023-02-16T10:15:49.775Z,-3.60
2023-02-16T10:18:31.526Z,-3.44
2023-02-16T10:21:02.528Z,-3.35
2023-02-16T10:23:44.571Z,-3.14
2023-02-16T10:26:18.040Z,-2.97
2023-02-16T10:28:55.488Z,-2.86
2023-02-16T10:31:39.116Z,-2.77
2023-02-16T10:34:05.906Z,-2.73
2023-02-16T10:36:51.923Z,-2.65
2023-02-16T10:39:30.253Z,-2.48
2023-02-16T10:42:16.520Z,-2.36
2023-02-16T10:44:52.534Z,-2.37
2023-02-16T10:47:35.712Z,-2.37
2023-02-16T10:50:03.751Z,-2.59
2023-02-16T10:52:37.444Z,-2.58
2023-02-16T10:55:04.547Z,-2.67
2023-02-16T10:57:33.002Z,-2.72
2023-02-16T11:00:08.262Z,-2.70
2023-02-16T11:02:40.971Z,-2.75
2023-02-16T11:05:26.288Z,-2.62
2023-02-16T11:07:56.662Z,-2.78
2023-02-16T11:10:46.243Z,-2.72
2023-02-16T11:13:25.075Z,-2.77
2023-02-16T11:15:55.016Z,-2.79
2023-02-16T11:18:41.646Z,-2.73
2023-02-16T11:21:10.542Z,-2.76
2023-02-16T11:23:43.019Z,-2.76
2023-02-16T11:26:10.143Z,-2.88
2023-02-16T11:28:44.074Z,-3.09
2023-02-16T11:31:13.666Z,-3.26
2023-02-16T11:33:42.707Z,-3.32
2023-02-16T11:36:43.555Z,-3.33
2023-02-16T11:39:27.207Z,-3.58
2023-02-16T11:41:57.739Z,-3.67
2023-02-16T11:44:48.802Z,-3.54
2023-02-16T11:47:38.319Z,-3.48
2023-02-16T11:50:29.029Z,-3.43
2023-02-16T11:53:09.401Z,-3.46
2023-02-16T11:55:43.203Z,-3.45
2023-02-16T11:58:21.251Z,-3.44
2023-02-16T12:01:16.615Z,-3.38
2023-02-16T12:03:59.971Z,-3.26
2023-02-16T12:07:03.817Z,-3.09
2023-02-16T12:09:45.594Z,-2.98
2023-02-16T12:12:42.072Z,-2.86
2023-02-16T12:15:37.857Z,-2.80
2023-02-16T12:18:19.828Z,-2.86
2023-02-16T12:20:58.971Z,-2.86
2023-02-16T12:23:32.006Z,-2.98
2023-02-16T12:26:17.052Z,-2.98
2023-02-16T12:28:58.965Z,-3.01
2023-02-16T12:31:47.570Z,-2.90
2023-02-16T12:34:22.518Z,-2.92
2023-02-16T12:37:18.659Z,-2.86
2023-02-16T12:40:13.740Z,-2.89
2023-02-16T12:43:32.020Z,-2.84
2023-02-16T12:46:05.174Z,-3.03
2023-02-16T12:48:32.908Z,-3.13
2023-02-16T12:51:03.437Z,-3.13
2023-02-16T12:53:42.013Z,-3.18
2023-02-16T12:56:18.595Z,-3.16
2023-02-16T12:58:53.373Z,-3.18
2023-02-16T13:01:27.584Z,-3.24
2023-02-16T13:04:14.423Z,-3.26
2023-02-16T13:06:58.040Z,-3.33
2023-02-16T13:09:40.640Z,-3.33
2023-02-16T13:12:17.695Z,-3.46
2023-02-16T13:14:52.210Z,-3.59
2023-02-16T13:17:32.007Z,-3.65
2023-02-16T13:21:05.975Z,-3.68
2023-02-16T13:23:34.424Z,-3.70
2023-02-16T13:26:19.036Z,-3.73
2023-02-16T13:29:04.516Z,-3.77
2023-02-16T13:32:06.209Z,-3.84
2023-02-16T13:34:48.206Z,-3.87
2023-02-16T13:37:20.912Z,-3.79
2023-02-16T13:39:50.263Z,-3.90
2023-02-16T13:42:41.540Z,-3.83
2023-02-16T13:45:20.364Z,-3.76
2023-02-16T13:47:47.558Z,-3.83
2023-02-16T13:50:23.940Z,-3.82
2023-02-16T13:52:56.803Z,-3.94
2023-02-16T13:55:26.961Z,-3.99
2023-02-16T13:58:04.486Z,-3.91
2023-02-16T14:00:33.195Z,-3.96
2023-02-16T14:03:12.160Z,-3.96
2023-02-16T14:05:42.722Z,-3.90
2023-02-16T14:08:19.024Z,-3.86
2023-02-16T14:10:57.013Z,-3.85
2023-02-16T14:13:34.421Z,-3.89
2023-02-16T14:16:22.498Z,-3.92
2023-02-16T14:19:19.401Z,-3.88
2023-02-16T14:21:48.285Z,-3.95
2023-02-16T14:24:30.775Z,-3.90
2023-02-16T14:27:03.139Z,-3.99
2023-02-16T14:30:05.021Z,-4.04
2023-02-16T14:32:38.678Z,-4.18
2023-02-16T14:35:14.381Z,-4.31
2023-02-16T14:38:03.629Z,-4.24
2023-02-16T14:40:57.895Z,-4.18
2023-02-16T14:43:33.667Z,-4.26
2023-02-16T14:46:22.409Z,-4.14
2023-02-16T14:52:08.921Z,-4.13
2023-02-16T14:54:48.062Z,-4.18
2023-02-16T14:57:24.116Z,-4.11
2023-02-16T14:59:59.793Z,-4.11
2023-02-16T15:05:35.222Z,-4.10
2023-02-16T15:08:23.182Z,-4.04
2023-02-16T15:10:56.730Z,-4.13
2023-02-16T15:13:45.205Z,-4.06
2023-02-16T15:16:17.166Z,-4.09
2023-02-16T15:18:53.818Z,-4.05
2023-02-16T15:21:30.822Z,-4.09
2023-02-16T15:24:00.507Z,-4.11
2023-02-16T15:26:36.027Z,-4.09
2023-02-16T15:29:33.403Z,-4.07
2023-02-16T15:32:00.718Z,-4.19
2023-02-16T15:34:33.383Z,-4.17
2023-02-16T15:37:02.593Z,-4.20
2023-02-16T15:39:49.918Z,-4.17
2023-02-16T15:42:28.249Z,-4.19
2023-02-16T15:44:55.143Z,-4.26
2023-02-16T15:47:24.820Z,-4.26
2023-02-16T15:49:52.783Z,-4.29
2023-02-16T15:52:26.699Z,-4.31
2023-02-16T15:54:53.931Z,-4.38
2023-02-16T15:57:32.087Z,-4.38
2023-02-16T16:00:06.125Z,-4.47
2023-02-16T16:02:41.622Z,-4.54
2023-02-16T16:05:20.893Z,-4.68
2023-02-16T16:07:48.684Z,-4.80
2023-02-16T16:10:20.775Z,-4.88
2023-02-16T16:12:49.802Z,-4.94
2023-02-16T16:15:22.985Z,-5.00
2023-02-16T16:17:51.736Z,-5.12
2023-02-16T16:20:32.873Z,-5.13
2023-02-16T16:23:07.358Z,-5.26
2023-02-16T16:25:34.193Z,-5.34
2023-02-16T16:28:04.610Z,-5.40
2023-02-16T16:30:37.594Z,-5.42
2023-02-16T16:33:10.363Z,-5.44
2023-02-16T16:35:40.938Z,-5.47
2023-02-16T16:38:23.759Z,-5.44
2023-02-16T16:40:54.761Z,-5.56
2023-02-16T16:43:27.001Z,-5.61
2023-02-16T16:46:17.722Z,-5.58
2023-02-16T16:48:51.651Z,-5.65
2023-02-16T16:51:43.019Z,-5.62
2023-02-16T16:54:33.245Z,-5.75
2023-02-16T16:57:00.170Z,-5.84
2023-02-16T16:59:26.971Z,-5.90
2023-02-16T17:01:53.929Z,-5.95
2023-02-16T17:04:22.608Z,-5.99
2023-02-16T17:06:59.568Z,-6.02
2023-02-16T17:09:26.355Z,-6.04
2023-02-16T17:11:53.299Z,-6.04
2023-02-16T17:14:20.932Z,-6.06
2023-02-16T17:16:52.675Z,-6.06
2023-02-16T17:19:20.596Z,-5.99
2023-02-16T17:21:48.333Z,-6.11
2023-02-16T17:24:16.336Z,-6.11
2023-02-16T17:26:43.417Z,-6.10
2023-02-16T17:29:10.339Z,-6.08
2023-02-16T17:31:37.433Z,-6.09
2023-02-16T17:34:04.598Z,-6.11
2023-02-16T17:36:31.421Z,-6.13
2023-02-16T17:38:58.343Z,-6.04
2023-02-16T17:41:28.063Z,-5.99
2023-02-16T17:43:55.421Z,-5.86
2023-02-16T17:46:23.421Z,-5.87
2023-02-16T17:48:53.577Z,-5.96
2023-02-16T17:51:22.688Z,-6.06
2023-02-16T17:53:49.579Z,-6.21
2023-02-16T17:56:19.429Z,-6.30
2023-02-16T17:58:46.549Z,-6.43
2023-02-16T18:01:15.829Z,-6.43
2023-02-16T18:03:42.955Z,-6.48
2023-02-16T18:06:17.233Z,-6.49
2023-02-16T18:08:44.967Z,-6.58
2023-02-16T18:11:11.883Z,-6.67
2023-02-16T18:13:39.489Z,-6.79
2023-02-16T18:16:07.907Z,-6.81
2023-02-16T18:18:39.132Z,-6.94
2023-02-16T18:21:09.310Z,-7.00
2023-02-16T18:23:37.527Z,-7.07
2023-02-16T18:26:05.726Z,-7.05
2023-02-16T18:28:35.225Z,-7.08
2023-02-16T18:31:09.000Z,-7.01
2023-02-16T18:33:36.423Z,-7.01
2023-02-16T18:36:04.883Z,-7.05
2023-02-16T18:38:32.076Z,-7.12
2023-02-16T18:40:59.113Z,-7.15
2023-02-16T18:43:25.980Z,-7.15
2023-02-16T18:45:55.627Z,-7.12
2023-02-16T18:48:22.631Z,-7.12
2023-02-16T18:50:49.667Z,-7.08
2023-02-16T18:53:16.625Z,-7.08
2023-02-16T18:55:43.531Z,-7.04
2023-02-16T18:58:14.021Z,-7.02
2023-02-16T19:00:42.043Z,-7.02
2023-02-16T19:03:09.296Z,-6.97
2023-02-16T19:05:36.270Z,-6.94
2023-02-16T19:08:03.151Z,-6.92
2023-02-16T19:10:30.342Z,-6.92
2023-02-16T19:12:57.197Z,-6.93
2023-02-16T19:15:24.140Z,-6.87
2023-02-16T19:17:51.506Z,-6.79
2023-02-16T19:20:19.831Z,-6.74
2023-02-16T19:22:48.678Z,-6.75
2023-02-16T19:25:16.336Z,-6.79
2023-02-16T19:27:43.946Z,-6.70
2023-02-16T19:30:12.246Z,-6.67
2023-02-16T19:32:41.207Z,-6.73
2023-02-16T19:35:09.635Z,-6.73
2023-02-16T19:37:36.596Z,-6.75
2023-02-16T19:40:06.855Z,-6.78
2023-02-16T19:42:33.780Z,-6.79
2023-02-16T19:45:00.678Z,-6.82
2023-02-16T19:47:27.555Z,-6.82
2023-02-16T19:49:54.326Z,-6.82
2023-02-16T19:52:21.185Z,-6.82
2023-02-16T19:54:47.948Z,-6.84
2023-02-16T19:57:14.770Z,-6.85
2023-02-16T19:59:41.648Z,-6.84
2023-02-16T20:02:11.346Z,-6.80
2023-02-16T20:04:38.405Z,-6.82
2023-02-16T20:07:05.868Z,-6.80
2023-02-16T20:09:32.609Z,-6.82
2023-02-16T20:11:59.554Z,-6.88
2023-02-16T20:14:26.246Z,-6.98
2023-02-16T20:16:53.090Z,-7.08
2023-02-16T20:19:19.931Z,-7.14
2023-02-16T20:21:46.836Z,-7.20
2023-02-16T20:24:14.356Z,-7.27
2023-02-16T20:26:44.201Z,-7.32
2023-02-16T20:29:13.279Z,-7.36
2023-02-16T20:31:48.964Z,-7.33
2023-02-16T20:34:16.001Z,-7.40
2023-02-16T20:36:42.791Z,-7.45
2023-02-16T20:39:09.784Z,-7.46
2023-02-16T20:41:37.292Z,-7.43
2023-02-16T20:44:04.893Z,-7.37
2023-02-16T20:46:31.824Z,-7.32
2023-02-16T20:48:58.784Z,-7.25
2023-02-16T20:51:26.117Z,-7.20
2023-02-16T20:53:52.893Z,-7.12
2023-02-16T20:56:22.801Z,-7.04
2023-02-16T20:58:51.491Z,-7.02
2023-02-16T21:01:23.853Z,-6.98
2023-02-16T21:03:51.943Z,-7.03
2023-02-16T21:06:19.717Z,-7.03
2023-02-16T21:08:46.699Z,-7.06
2023-02-16T21:11:14.553Z,-7.04
2023-02-16T21:13:41.919Z,-7.01
2023-02-16T21:16:09.313Z,-6.97
2023-02-16T21:18:39.382Z,-6.91
2023-02-16T21:21:07.927Z,-6.85
2023-02-16T21:23:34.689Z,-6.78
2023-02-16T21:26:04.520Z,-6.72
2023-02-16T21:28:31.513Z,-6.73
2023-02-16T21:31:04.283Z,-6.66
2023-02-16T21:33:31.154Z,-6.69
2023-02-16T21:36:34.238Z,-6.61
2023-02-16T21:39:02.921Z,-6.70
2023-02-16T21:41:29.945Z,-6.76
2023-02-16T21:44:18.115Z,-6.72
2023-02-16T21:46:47.161Z,-6.80
2023-02-16T21:49:19.838Z,-6.79
2023-02-16T21:51:48.361Z,-6.81
2023-02-16T21:54:18.485Z,-6.80
2023-02-16T21:56:50.383Z,-6.80
2023-02-16T21:59:19.466Z,-6.85
2023-02-16T22:01:51.126Z,-6.89
2023-02-16T22:04:21.685Z,-6.91
2023-02-16T22:06:49.714Z,-6.91
2023-02-16T22:09:21.844Z,-6.89
2023-02-16T22:11:49.694Z,-6.93
2023-02-16T22:14:16.998Z,-6.91
2023-02-16T22:16:46.116Z,-6.87
2023-02-16T22:19:16.926Z,-6.84
2023-02-16T22:21:47.621Z,-6.82
2023-02-16T22:24:17.027Z,-6.80
2023-02-16T22:26:44.591Z,-6.77
2023-02-16T22:29:12.183Z,-6.74
2023-02-16T22:31:43.258Z,-6.69
2023-02-16T22:34:15.912Z,-6.60
2023-02-16T22:36:43.121Z,-6.62
2023-02-16T22:39:12.784Z,-6.59
2023-02-16T22:41:40.088Z,-6.59
2023-02-16T22:44:07.231Z,-6.56
2023-02-16T22:46:37.174Z,-6.56
2023-02-16T22:49:03.933Z,-6.59
2023-02-16T22:51:31.385Z,-6.58
2023-02-16T22:53:59.169Z,-6.57
2023-02-16T22:56:27.011Z,-6.57
2023-02-16T22:58:57.517Z,-6.56
2023-02-16T23:01:26.457Z,-6.56
2023-02-16T23:03:57.378Z,-6.52
2023-02-16T23:06:31.205Z,-6.49
2023-02-16T23:09:00.648Z,-6.55
2023-02-16T23:11:28.260Z,-6.55
2023-02-16T23:13:55.202Z,-6.57
2023-02-16T23:16:24.850Z,-6.54
2023-02-16T23:18:52.011Z,-6.61
2023-02-16T23:21:24.803Z,-6.65
2023-02-16T23:23:53.097Z,-6.73
2023-02-16T23:26:22.213Z,-6.79
2023-02-16T23:28:54.126Z,-6.85
2023-02-16T23:31:22.073Z,-7.01
2023-02-16T23:33:50.019Z,-7.10
2023-02-16T23:36:16.822Z,-7.20
2023-02-16T23:38:43.667Z,-7.23
2023-02-16T23:41:14.890Z,-7.21
2023-02-16T23:43:42.237Z,-7.26
2023-02-16T23:46:09.687Z,-7.28
2023-02-16T23:48:38.192Z,-7.31
2023-02-16T23:51:05.473Z,-7.33
2023-02-16T23:53:32.253Z,-7.33
2023-02-16T23:56:03.598Z,-7.36
2023-02-16T23:58:32.907Z,-7.40
